AMQ623 EPWR-DTMB
Flight info
| Callsign | AMQ623 |
|---|---|
| Flight time | N/A |
| Altitude | 36000 |
| Route | ULGIL T707 TOMTI DCT PISAM DCT ARNOS P125 ROSKA DCT GIKIN L865 TAQ M738 TUNEX UG737 CBN UG727 MON UN157 GIPRA GIPRA1R |
| Aircraft | A320/M-SDE3FGHIRWY/LB1 |
Departure
| Time | 2026-05-05 17:35 |
|---|---|
| Airport | Copernicus Wrocław Airport (EPWR) |
Arrival
| Time | N/A |
|---|---|
| Airport | Monastir Habib Bourguiba International Airport (DTMB) |
| Time | Latitude | Longitude | Altitude | Speed | Heading |
|---|---|---|---|---|---|
| 2026-05-05 17:20 | 51.10891 | 16.87925 | 411 ft | 0 kts | 22° |
| 2026-05-05 17:23 | 51.10892 | 16.87926 | 411 ft | 0 kts | 22° |
| 2026-05-05 17:25 | 51.10877 | 16.87916 | 409 ft | 2 kts | 24° |
| 2026-05-05 17:25 | 51.10861 | 16.87905 | 408 ft | 3 kts | 22° |
| 2026-05-05 17:26 | 51.10843 | 16.87894 | 407 ft | 3 kts | 14° |
| 2026-05-05 17:26 | 51.10824 | 16.87894 | 410 ft | 3 kts | 315° |
| 2026-05-05 17:26 | 51.10815 | 16.87912 | 411 ft | 0 kts | 296° |
| 2026-05-05 17:26 | 51.10815 | 16.87911 | 411 ft | 0 kts | 296° |
| 2026-05-05 17:28 | 51.10816 | 16.87909 | 410 ft | 1 kts | 296° |
| 2026-05-05 17:29 | 51.10821 | 16.87892 | 410 ft | 4 kts | 296° |
| 2026-05-05 17:29 | 51.10843 | 16.87821 | 410 ft | 14 kts | 296° |
| 2026-05-05 17:29 | 51.10900 | 16.87630 | 411 ft | 22 kts | 295° |
| 2026-05-05 17:29 | 51.10951 | 16.87436 | 415 ft | 13 kts | 258° |
| 2026-05-05 17:30 | 51.10903 | 16.87387 | 416 ft | 10 kts | 205° |
| 2026-05-05 17:30 | 51.10895 | 16.87382 | 415 ft | 0 kts | 196° |
| 2026-05-05 17:31 | 51.10897 | 16.87383 | 416 ft | 2 kts | 196° |
| 2026-05-05 17:31 | 51.10903 | 16.87387 | 416 ft | 0 kts | 187° |
| 2026-05-05 17:31 | 51.10874 | 16.87379 | 413 ft | 4 kts | 225° |
| 2026-05-05 17:31 | 51.10804 | 16.87314 | 411 ft | 24 kts | 206° |
| 2026-05-05 17:32 | 51.10663 | 16.87272 | 411 ft | 16 kts | 136° |
| 2026-05-05 17:32 | 51.10621 | 16.87421 | 408 ft | 16 kts | 113° |
| 2026-05-05 17:32 | 51.10541 | 16.87696 | 407 ft | 41 kts | 116° |
| 2026-05-05 17:32 | 51.10415 | 16.88114 | 411 ft | 41 kts | 115° |
| 2026-05-05 17:33 | 51.10286 | 16.88523 | 408 ft | 42 kts | 115° |
| 2026-05-05 17:33 | 51.10156 | 16.88953 | 408 ft | 44 kts | 116° |
| 2026-05-05 17:33 | 51.10022 | 16.89386 | 413 ft | 42 kts | 116° |
| 2026-05-05 17:33 | 51.09907 | 16.89695 | 411 ft | 22 kts | 122° |
| 2026-05-05 17:34 | 51.09909 | 16.89745 | 410 ft | 3 kts | 339° |
| 2026-05-05 17:34 | 51.09913 | 16.89734 | 407 ft | 0 kts | 298° |
| 2026-05-05 17:34 | 51.09915 | 16.89731 | 408 ft | 1 kts | 298° |
| 2026-05-05 17:34 | 51.09937 | 16.89657 | 411 ft | 28 kts | 296° |
| 2026-05-05 17:35 | 51.10127 | 16.89040 | 407 ft | 94 kts | 296° |
| 2026-05-05 17:35 | 51.10495 | 16.87872 | 411 ft | 142 kts | 295° |
| 2026-05-05 17:35 | 51.10944 | 16.86345 | 784 ft | 150 kts | 298° |
| 2026-05-05 17:35 | 51.11384 | 16.84871 | 1379 ft | 147 kts | 300° |
| 2026-05-05 17:36 | 51.11843 | 16.83381 | 1757 ft | 158 kts | 300° |
| 2026-05-05 17:36 | 51.12351 | 16.81721 | 2041 ft | 181 kts | 294° |
| 2026-05-05 17:36 | 51.12432 | 16.79637 | 2308 ft | 207 kts | 250° |
| 2026-05-05 17:36 | 51.11492 | 16.77758 | 2607 ft | 232 kts | 219° |
| 2026-05-05 17:37 | 51.10297 | 16.75854 | 2998 ft | 257 kts | 238° |
| 2026-05-05 17:37 | 51.09762 | 16.73097 | 3644 ft | 268 kts | 268° |
| 2026-05-05 17:37 | 51.09760 | 16.70119 | 4581 ft | 270 kts | 269° |
| 2026-05-05 17:37 | 51.09775 | 16.67116 | 5518 ft | 272 kts | 269° |
| 2026-05-05 17:38 | 51.09790 | 16.64088 | 6409 ft | 275 kts | 269° |
| 2026-05-05 17:38 | 51.09804 | 16.61074 | 7262 ft | 277 kts | 268° |
| 2026-05-05 17:38 | 51.09816 | 16.58002 | 8151 ft | 279 kts | 268° |
| 2026-05-05 17:38 | 51.09826 | 16.54776 | 9061 ft | 280 kts | 268° |
| 2026-05-05 17:39 | 51.09834 | 16.51807 | 9878 ft | 282 kts | 268° |
| 2026-05-05 17:39 | 51.09839 | 16.48600 | 10265 ft | 301 kts | 268° |
| 2026-05-05 17:39 | 51.09844 | 16.45148 | 10448 ft | 324 kts | 268° |
| 2026-05-05 17:39 | 51.09853 | 16.41472 | 10859 ft | 337 kts | 268° |
| 2026-05-05 17:40 | 51.09862 | 16.37715 | 11512 ft | 342 kts | 269° |
| 2026-05-05 17:40 | 51.09870 | 16.33974 | 12201 ft | 345 kts | 268° |
| 2026-05-05 17:40 | 51.09875 | 16.30140 | 12909 ft | 348 kts | 268° |
| 2026-05-05 17:40 | 51.09875 | 16.26271 | 13604 ft | 351 kts | 268° |
| 2026-05-05 17:41 | 51.09874 | 16.22369 | 14219 ft | 354 kts | 268° |
| 2026-05-05 17:41 | 51.09873 | 16.18431 | 14817 ft | 358 kts | 269° |
| 2026-05-05 17:41 | 51.09872 | 16.14457 | 15412 ft | 360 kts | 268° |
| 2026-05-05 17:41 | 51.09869 | 16.10456 | 15994 ft | 364 kts | 268° |
| 2026-05-05 17:42 | 51.09867 | 16.06413 | 16587 ft | 367 kts | 268° |
| 2026-05-05 17:42 | 51.09743 | 16.02401 | 17169 ft | 369 kts | 261° |
| 2026-05-05 17:42 | 51.09172 | 15.98416 | 17784 ft | 371 kts | 251° |
| 2026-05-05 17:42 | 51.08387 | 15.94487 | 18370 ft | 375 kts | 251° |
| 2026-05-05 17:43 | 51.07597 | 15.90521 | 18936 ft | 377 kts | 251° |
| 2026-05-05 17:43 | 51.06802 | 15.86527 | 19514 ft | 380 kts | 251° |
| 2026-05-05 17:43 | 51.06001 | 15.82505 | 20105 ft | 383 kts | 251° |
| 2026-05-05 17:43 | 51.05199 | 15.78461 | 20683 ft | 385 kts | 251° |
| 2026-05-05 17:44 | 51.04390 | 15.74393 | 21227 ft | 388 kts | 251° |
| 2026-05-05 17:44 | 51.03573 | 15.70296 | 21749 ft | 390 kts | 251° |
| 2026-05-05 17:44 | 51.02750 | 15.66177 | 22258 ft | 392 kts | 251° |
| 2026-05-05 17:44 | 51.01933 | 15.62084 | 22767 ft | 395 kts | 251° |
| 2026-05-05 17:45 | 51.01100 | 15.57920 | 23258 ft | 397 kts | 251° |
| 2026-05-05 17:45 | 51.00256 | 15.53732 | 23680 ft | 400 kts | 251° |
| 2026-05-05 17:45 | 50.99404 | 15.49516 | 24077 ft | 402 kts | 251° |
| 2026-05-05 17:45 | 50.98546 | 15.45281 | 24468 ft | 404 kts | 251° |
| 2026-05-05 17:46 | 50.97657 | 15.41047 | 24847 ft | 406 kts | 247° |
| 2026-05-05 17:46 | 50.96309 | 15.37125 | 25210 ft | 407 kts | 233° |
| 2026-05-05 17:46 | 50.94374 | 15.33838 | 25568 ft | 410 kts | 220° |
| 2026-05-05 17:46 | 50.91964 | 15.31405 | 25914 ft | 414 kts | 206° |
| 2026-05-05 17:47 | 50.89207 | 15.30007 | 26263 ft | 420 kts | 192° |
| 2026-05-05 17:47 | 50.86268 | 15.29737 | 26606 ft | 426 kts | 181° |
| 2026-05-05 17:47 | 50.83333 | 15.29881 | 26944 ft | 429 kts | 181° |
| 2026-05-05 17:47 | 50.80344 | 15.30029 | 27298 ft | 431 kts | 180° |
| 2026-05-05 17:48 | 50.77339 | 15.30180 | 27639 ft | 434 kts | 181° |
| 2026-05-05 17:48 | 50.74313 | 15.30330 | 27980 ft | 436 kts | 181° |
| 2026-05-05 17:48 | 50.71269 | 15.30479 | 28301 ft | 438 kts | 181° |
| 2026-05-05 17:48 | 50.68213 | 15.30620 | 28624 ft | 441 kts | 181° |
| 2026-05-05 17:49 | 50.65152 | 15.30758 | 29084 ft | 440 kts | 181° |
| 2026-05-05 17:49 | 50.62096 | 15.30899 | 29562 ft | 439 kts | 181° |
| 2026-05-05 17:49 | 50.59045 | 15.31039 | 30010 ft | 438 kts | 181° |
| 2026-05-05 17:49 | 50.56044 | 15.31179 | 30416 ft | 437 kts | 181° |
| 2026-05-05 17:50 | 50.53004 | 15.31325 | 30833 ft | 436 kts | 181° |
| 2026-05-05 17:50 | 50.49974 | 15.31471 | 31250 ft | 435 kts | 181° |
| 2026-05-05 17:50 | 50.46947 | 15.31614 | 31675 ft | 435 kts | 181° |
| 2026-05-05 17:50 | 50.43927 | 15.31756 | 32099 ft | 434 kts | 181° |
| 2026-05-05 17:51 | 50.40916 | 15.31895 | 32529 ft | 433 kts | 181° |
| 2026-05-05 17:51 | 50.37911 | 15.32033 | 32955 ft | 432 kts | 181° |
| 2026-05-05 17:51 | 50.34911 | 15.32170 | 33391 ft | 431 kts | 181° |
| 2026-05-05 17:51 | 50.31954 | 15.32304 | 33812 ft | 430 kts | 181° |
| 2026-05-05 17:52 | 50.28968 | 15.32444 | 34179 ft | 429 kts | 181° |
| 2026-05-05 17:52 | 50.25987 | 15.32589 | 34532 ft | 428 kts | 181° |
| 2026-05-05 17:52 | 50.23016 | 15.32732 | 34865 ft | 427 kts | 181° |
| 2026-05-05 17:52 | 50.20046 | 15.32868 | 35204 ft | 426 kts | 181° |
| 2026-05-05 17:53 | 50.17083 | 15.32999 | 35528 ft | 425 kts | 181° |
| 2026-05-05 17:53 | 50.14124 | 15.33133 | 35708 ft | 426 kts | 181° |
| 2026-05-05 17:53 | 50.11144 | 15.33268 | 35745 ft | 431 kts | 181° |
| 2026-05-05 17:54 | 50.05161 | 15.33536 | 35745 ft | 434 kts | 181° |
| 2026-05-05 17:54 | 49.99122 | 15.33804 | 35744 ft | 434 kts | 181° |
| 2026-05-05 17:55 | 49.93081 | 15.34084 | 35742 ft | 434 kts | 181° |
| 2026-05-05 17:55 | 49.87039 | 15.34371 | 35742 ft | 435 kts | 181° |
| 2026-05-05 17:56 | 49.81034 | 15.34644 | 35739 ft | 435 kts | 181° |
| 2026-05-05 17:56 | 49.74982 | 15.34916 | 35741 ft | 435 kts | 181° |
| 2026-05-05 17:57 | 49.68932 | 15.35184 | 35744 ft | 435 kts | 181° |
| 2026-05-05 17:57 | 49.62881 | 15.35457 | 35739 ft | 435 kts | 181° |
| 2026-05-05 17:58 | 49.56869 | 15.35731 | 35741 ft | 435 kts | 181° |
| 2026-05-05 17:58 | 49.50812 | 15.35995 | 35741 ft | 435 kts | 181° |